createdAt,value
2023-02-25T00:02:18.698Z,2.58
2023-02-25T00:04:50.114Z,3.62
2023-02-25T00:07:17.475Z,3.04
2023-02-25T00:09:48.952Z,2.35
2023-02-25T00:12:16.074Z,1.92
2023-02-25T00:14:43.197Z,1.67
2023-02-25T00:17:12.408Z,1.79
2023-02-25T00:19:39.717Z,2.84
2023-02-25T00:22:06.878Z,2.29
2023-02-25T00:24:34.093Z,2.24
2023-02-25T00:27:01.175Z,2.34
2023-02-25T00:29:28.315Z,2.81
2023-02-25T00:31:55.571Z,2.04
2023-02-25T00:34:24.859Z,2.69
2023-02-25T00:36:52.084Z,3.80
2023-02-25T00:39:19.300Z,3.58
2023-02-25T00:41:46.428Z,2.68
2023-02-25T00:44:13.608Z,2.75
2023-02-25T00:46:40.862Z,2.83
2023-02-25T00:49:08.408Z,3.02
2023-02-25T00:51:39.508Z,3.78
2023-02-25T00:54:06.669Z,3.01
2023-02-25T00:56:33.833Z,3.35
2023-02-25T00:59:00.934Z,3.98
2023-02-25T01:01:30.549Z,3.97
2023-02-25T01:03:58.797Z,2.85
2023-02-25T01:06:29.064Z,2.92
2023-02-25T01:09:00.567Z,2.29
2023-02-25T01:11:31.967Z,2.87
2023-02-25T01:14:02.560Z,2.94
2023-02-25T01:16:33.924Z,2.85
2023-02-25T01:19:05.639Z,2.84
2023-02-25T01:21:36.588Z,3.32
2023-02-25T01:24:08.091Z,2.48
2023-02-25T01:26:38.024Z,2.16
2023-02-25T01:29:08.401Z,2.49
2023-02-25T01:31:35.636Z,2.40
2023-02-25T01:34:04.405Z,2.00
2023-02-25T01:36:32.943Z,2.18
2023-02-25T01:39:01.371Z,1.86
2023-02-25T01:41:31.777Z,2.00
2023-02-25T01:44:08.308Z,1.88
2023-02-25T01:46:36.224Z,1.82
2023-02-25T01:49:08.090Z,1.83
2023-02-25T01:51:37.288Z,1.98
2023-02-25T01:54:07.850Z,1.88
2023-02-25T01:56:40.408Z,1.97
2023-02-25T01:59:08.353Z,2.18
2023-02-25T02:01:39.854Z,2.39
2023-02-25T02:04:11.812Z,2.93
2023-02-25T02:06:41.052Z,2.42
2023-02-25T02:09:13.356Z,2.11
2023-02-25T02:11:42.956Z,1.93
2023-02-25T02:14:16.410Z,1.92
2023-02-25T02:17:13.859Z,2.13
2023-02-25T02:20:11.033Z,2.09
2023-02-25T02:22:56.107Z,1.66
2023-02-25T02:25:55.029Z,1.89
2023-02-25T02:29:17.448Z,2.16
2023-02-25T02:31:55.389Z,2.03
2023-02-25T02:34:35.939Z,2.00
2023-02-25T02:37:24.894Z,2.01
2023-02-25T02:40:05.694Z,2.11
2023-02-25T02:42:43.927Z,1.96
2023-02-25T02:45:19.465Z,2.06
2023-02-25T02:47:58.249Z,2.30
2023-02-25T02:50:33.951Z,2.26
2023-02-25T02:53:08.716Z,2.32
2023-02-25T02:55:40.302Z,2.15
2023-02-25T02:58:13.322Z,2.25
2023-02-25T03:00:46.503Z,2.21
2023-02-25T03:03:19.841Z,2.27
2023-02-25T03:05:53.401Z,2.38
2023-02-25T03:08:26.926Z,1.79
2023-02-25T03:10:54.141Z,1.99
2023-02-25T03:13:21.726Z,1.80
2023-02-25T03:15:52.159Z,1.94
2023-02-25T03:18:31.867Z,1.92
2023-02-25T03:21:01.752Z,2.01
2023-02-25T03:23:34.004Z,1.95
2023-02-25T03:26:12.605Z,1.79
2023-02-25T03:28:44.635Z,1.75
2023-02-25T03:31:19.221Z,1.79
2023-02-25T03:33:52.946Z,1.65
2023-02-25T03:36:25.456Z,1.82
2023-02-25T03:38:58.284Z,1.65
2023-02-25T03:41:31.467Z,1.70
2023-02-25T03:44:00.428Z,1.72
2023-02-25T03:46:29.605Z,1.66
2023-02-25T03:49:02.010Z,1.76
2023-02-25T03:51:34.540Z,1.73
2023-02-25T03:54:01.841Z,1.76
2023-02-25T03:56:29.118Z,1.75
2023-02-25T03:58:56.471Z,1.83
2023-02-25T04:01:30.484Z,1.72
2023-02-25T04:03:59.264Z,1.98
2023-02-25T04:06:26.364Z,1.92
2023-02-25T04:08:53.620Z,1.74
2023-02-25T04:11:20.994Z,2.25
2023-02-25T04:13:48.125Z,1.96
2023-02-25T04:16:15.447Z,1.78
2023-02-25T04:18:42.692Z,1.79
2023-02-25T04:21:27.842Z,1.97
2023-02-25T04:23:55.305Z,2.24
2023-02-25T04:26:22.850Z,2.16
2023-02-25T04:28:50.142Z,1.86
2023-02-25T04:31:17.371Z,2.61
2023-02-25T04:33:44.663Z,2.29
2023-02-25T04:36:25.167Z,2.21
2023-02-25T04:38:52.628Z,1.91
2023-02-25T04:41:20.050Z,1.96
2023-02-25T04:43:47.203Z,1.88
2023-02-25T04:46:14.491Z,1.88
2023-02-25T04:48:41.664Z,1.97
2023-02-25T04:51:09.044Z,1.83
2023-02-25T04:53:37.806Z,1.85
2023-02-25T04:56:07.625Z,1.81
2023-02-25T04:58:36.385Z,1.90
2023-02-25T05:01:06.308Z,2.00
2023-02-25T05:03:34.246Z,1.83
2023-02-25T05:06:02.110Z,1.91
2023-02-25T05:08:29.651Z,2.06
2023-02-25T05:10:58.266Z,1.98
2023-02-25T05:13:25.511Z,2.00
2023-02-25T05:15:52.985Z,2.09
2023-02-25T05:18:20.107Z,2.35
2023-02-25T05:20:48.246Z,2.27
2023-02-25T05:23:15.447Z,2.06
2023-02-25T05:25:42.520Z,2.37
2023-02-25T05:28:12.084Z,2.35
2023-02-25T05:30:39.728Z,2.21
2023-02-25T05:33:07.338Z,2.26
2023-02-25T05:35:34.618Z,2.40
2023-02-25T05:38:02.311Z,2.40
2023-02-25T05:40:29.585Z,2.41
2023-02-25T05:42:56.735Z,2.27
2023-02-25T05:45:25.315Z,2.57
2023-02-25T05:47:52.429Z,2.32
2023-02-25T05:50:19.775Z,2.72
2023-02-25T05:52:46.929Z,2.68
2023-02-25T05:55:14.078Z,2.70
2023-02-25T05:57:41.185Z,2.64
2023-02-25T06:00:10.646Z,2.79
2023-02-25T06:02:39.244Z,2.35
2023-02-25T06:05:08.164Z,2.46
2023-02-25T06:07:35.361Z,2.65
2023-02-25T06:10:02.545Z,2.55
2023-02-25T06:12:31.729Z,2.64
2023-02-25T06:14:59.302Z,2.71
2023-02-25T06:17:26.947Z,2.53
2023-02-25T06:19:55.582Z,2.71
2023-02-25T06:22:23.421Z,2.77
2023-02-25T06:24:50.541Z,2.76
2023-02-25T06:27:17.711Z,2.67
2023-02-25T06:29:48.107Z,3.20
2023-02-25T06:32:15.863Z,3.16
2023-02-25T06:34:43.384Z,3.10
2023-02-25T06:37:11.965Z,3.17
2023-02-25T06:39:40.348Z,3.69
2023-02-25T06:42:07.464Z,3.59
2023-02-25T06:44:34.622Z,3.90
2023-02-25T06:47:01.711Z,3.71
2023-02-25T06:49:30.346Z,3.37
2023-02-25T06:51:57.669Z,3.26
2023-02-25T06:54:26.306Z,3.46
2023-02-25T06:56:53.565Z,3.15
2023-02-25T06:59:21.529Z,3.05
2023-02-25T07:01:48.645Z,3.24
2023-02-25T07:04:18.775Z,2.90
2023-02-25T07:06:46.323Z,3.04
2023-02-25T07:09:13.611Z,2.97
2023-02-25T07:11:42.210Z,2.84
2023-02-25T07:14:09.364Z,3.17
2023-02-25T07:16:36.504Z,3.63
2023-02-25T07:19:03.692Z,3.25
2023-02-25T07:21:31.317Z,3.32
2023-02-25T07:23:58.822Z,3.36
2023-02-25T07:26:26.663Z,3.44
2023-02-25T07:28:56.124Z,3.46
2023-02-25T07:31:24.564Z,3.47
2023-02-25T07:33:54.743Z,3.62
2023-02-25T07:36:22.442Z,3.37
2023-02-25T07:38:49.600Z,3.50
2023-02-25T07:41:19.434Z,3.52
2023-02-25T07:43:46.641Z,3.34
2023-02-25T07:46:15.402Z,3.34
2023-02-25T07:48:42.672Z,3.70
2023-02-25T07:51:13.015Z,3.24
2023-02-25T07:53:40.628Z,3.56
2023-02-25T07:56:09.067Z,3.24
2023-02-25T07:58:36.820Z,3.06
2023-02-25T08:01:08.808Z,3.34
2023-02-25T08:03:38.029Z,4.42
2023-02-25T08:06:06.188Z,3.76
2023-02-25T08:08:33.389Z,3.02
2023-02-25T08:11:05.570Z,3.21
2023-02-25T08:13:32.759Z,2.97
2023-02-25T08:15:59.932Z,3.19
2023-02-25T08:18:27.203Z,3.17
2023-02-25T08:20:55.803Z,3.05
2023-02-25T08:23:22.921Z,2.74
2023-02-25T08:25:53.593Z,2.80
2023-02-25T08:28:20.906Z,3.02
2023-02-25T08:30:48.106Z,2.90
2023-02-25T08:33:15.758Z,3.11
2023-02-25T08:35:43.087Z,3.11
2023-02-25T08:38:12.263Z,2.81
2023-02-25T08:40:39.770Z,3.19
2023-02-25T08:43:06.910Z,2.71
2023-02-25T08:45:34.533Z,4.83
2023-02-25T08:48:01.677Z,3.17
2023-02-25T08:50:28.865Z,3.27
2023-02-25T08:52:56.368Z,3.41
2023-02-25T08:55:25.424Z,3.32
2023-02-25T08:57:53.514Z,3.27
2023-02-25T09:00:21.896Z,3.52
2023-02-25T09:02:49.129Z,3.62
2023-02-25T09:05:17.745Z,3.45
2023-02-25T09:07:46.819Z,3.08
2023-02-25T09:10:14.091Z,3.30
2023-02-25T09:12:42.736Z,3.55
2023-02-25T09:15:11.182Z,3.45
2023-02-25T09:17:38.994Z,3.50
2023-02-25T09:20:08.243Z,3.50
2023-02-25T09:22:35.586Z,3.31
2023-02-25T09:25:02.950Z,3.28
2023-02-25T09:27:30.185Z,3.29
2023-02-25T09:29:58.895Z,3.59
2023-02-25T09:32:26.292Z,3.64
2023-02-25T09:34:53.483Z,3.37
2023-02-25T09:37:20.669Z,3.55
2023-02-25T09:39:47.791Z,3.64
2023-02-25T09:42:21.242Z,3.72
2023-02-25T09:44:51.121Z,3.30
2023-02-25T09:47:28.396Z,3.65
2023-02-25T09:50:00.499Z,3.42
2023-02-25T09:52:31.702Z,3.55
2023-02-25T09:55:06.261Z,3.31
2023-02-25T09:57:40.687Z,3.36
2023-02-25T10:00:18.184Z,3.57
2023-02-25T10:02:55.943Z,3.39
2023-02-25T10:05:31.591Z,3.02
2023-02-25T10:08:11.329Z,3.46
2023-02-25T10:10:53.515Z,3.19
2023-02-25T10:13:34.578Z,3.59
2023-02-25T10:16:17.432Z,3.68
2023-02-25T10:19:01.564Z,3.65
2023-02-25T10:21:46.640Z,3.75
2023-02-25T10:24:26.174Z,3.32
2023-02-25T10:26:58.907Z,3.37
2023-02-25T10:29:34.332Z,3.24
2023-02-25T10:32:19.937Z,3.26
2023-02-25T10:34:50.866Z,3.39
2023-02-25T10:37:23.887Z,4.06
2023-02-25T10:39:56.829Z,3.72
2023-02-25T10:42:24.579Z,3.98
2023-02-25T10:44:52.169Z,4.03
2023-02-25T10:47:31.306Z,4.20
2023-02-25T10:50:17.228Z,4.25
2023-02-25T10:53:02.767Z,4.17
2023-02-25T10:55:40.909Z,3.76
2023-02-25T10:58:27.308Z,4.05
2023-02-25T11:00:58.901Z,4.18
2023-02-25T11:03:31.459Z,4.31
2023-02-25T11:06:18.766Z,4.36
2023-02-25T11:08:46.909Z,4.18
2023-02-25T11:11:21.506Z,4.10
2023-02-25T11:14:05.522Z,4.17
2023-02-25T11:16:36.271Z,4.23
2023-02-25T11:19:14.792Z,3.96
2023-02-25T11:21:45.069Z,3.95
2023-02-25T11:24:17.202Z,4.00
2023-02-25T11:26:47.318Z,3.78
2023-02-25T11:29:19.711Z,3.81
2023-02-25T11:31:52.465Z,3.68
2023-02-25T11:34:24.190Z,3.50
2023-02-25T11:36:53.267Z,4.05
2023-02-25T11:39:23.501Z,3.67
2023-02-25T11:41:52.947Z,3.44
2023-02-25T11:44:23.923Z,3.37
2023-02-25T11:46:59.402Z,3.40
2023-02-25T11:49:51.339Z,3.83
2023-02-25T11:52:31.390Z,3.73
2023-02-25T11:55:16.854Z,3.65
2023-02-25T11:57:56.637Z,3.81
2023-02-25T12:00:32.426Z,3.56
2023-02-25T12:03:24.245Z,4.39
2023-02-25T12:06:10.136Z,4.29
2023-02-25T12:09:01.041Z,4.94
2023-02-25T12:12:13.680Z,4.93
2023-02-25T12:15:31.236Z,4.73
2023-02-25T12:18:40.797Z,4.95
2023-02-25T12:21:49.261Z,4.76
2023-02-25T12:24:42.459Z,4.52
2023-02-25T12:27:45.983Z,4.38
2023-02-25T12:30:42.941Z,4.66
2023-02-25T12:33:29.124Z,4.65
2023-02-25T12:36:12.056Z,4.90
2023-02-25T12:39:11.120Z,4.47
2023-02-25T12:41:47.683Z,4.36
2023-02-25T12:44:42.631Z,3.96
2023-02-25T12:47:24.597Z,4.07
2023-02-25T12:50:17.876Z,4.71
2023-02-25T12:53:19.856Z,3.90
2023-02-25T12:56:12.858Z,3.75
2023-02-25T12:59:05.026Z,4.04
2023-02-25T13:01:48.795Z,4.23
2023-02-25T13:04:45.477Z,4.18
2023-02-25T13:07:48.406Z,4.18
2023-02-25T13:10:37.841Z,4.06
2023-02-25T13:13:30.521Z,3.98
2023-02-25T13:16:22.983Z,4.21
2023-02-25T13:19:09.808Z,3.85
2023-02-25T13:21:55.118Z,3.79
2023-02-25T13:24:42.046Z,4.02
2023-02-25T13:27:49.741Z,4.09
2023-02-25T13:30:41.783Z,4.51
2023-02-25T13:33:38.365Z,4.25
2023-02-25T13:36:34.704Z,3.94
2023-02-25T13:39:25.619Z,3.86
2023-02-25T13:42:18.079Z,4.45
2023-02-25T13:45:29.641Z,4.03
2023-02-25T13:48:30.423Z,3.81
2023-02-25T13:51:18.599Z,4.21
2023-02-25T13:54:15.358Z,3.92
2023-02-25T13:57:04.561Z,4.34
2023-02-25T13:59:48.664Z,4.57
2023-02-25T14:02:46.647Z,4.80
2023-02-25T14:05:36.187Z,4.87
2023-02-25T14:08:33.407Z,5.05
2023-02-25T14:11:18.558Z,4.88
2023-02-25T14:14:21.438Z,5.13
2023-02-25T14:17:08.699Z,5.39
2023-02-25T14:19:47.820Z,5.88
2023-02-25T14:22:43.379Z,5.46
2023-02-25T14:25:23.052Z,5.43
2023-02-25T14:28:06.439Z,5.06
2023-02-25T14:30:50.381Z,5.10
2023-02-25T14:33:39.446Z,4.88
2023-02-25T14:36:29.548Z,4.80
2023-02-25T14:39:30.899Z,5.20
2023-02-25T14:42:16.318Z,4.74
2023-02-25T14:44:55.857Z,4.78
2023-02-25T14:47:31.700Z,4.84
2023-02-25T14:50:09.468Z,4.55
2023-02-25T14:53:07.860Z,4.47
2023-02-25T14:59:10.377Z,4.56
2023-02-25T15:01:53.396Z,5.05
2023-02-25T15:04:55.895Z,4.63
2023-02-25T15:07:49.753Z,4.43
2023-02-25T15:10:47.517Z,5.21
2023-02-25T15:13:54.294Z,5.17
2023-02-25T15:16:53.661Z,5.53
2023-02-25T15:19:53.874Z,5.39
2023-02-25T15:22:26.695Z,5.14
2023-02-25T15:25:37.438Z,5.47
2023-02-25T15:28:42.802Z,4.75
2023-02-25T15:31:30.208Z,4.23
2023-02-25T15:37:30.136Z,5.36
2023-02-25T15:40:06.631Z,5.46
2023-02-25T15:42:50.009Z,5.66
2023-02-25T15:45:44.720Z,5.26
2023-02-25T15:48:32.649Z,5.44
2023-02-25T15:51:03.508Z,5.26
2023-02-25T15:53:42.815Z,5.33
2023-02-25T15:56:46.668Z,5.24
2023-02-25T15:59:45.023Z,5.32
2023-02-25T16:02:41.676Z,5.43
2023-02-25T16:05:29.916Z,5.02
2023-02-25T16:08:16.555Z,5.40
2023-02-25T16:10:49.816Z,5.16
2023-02-25T16:13:30.735Z,5.46
2023-02-25T16:15:59.425Z,5.25
2023-02-25T16:18:36.013Z,5.27
2023-02-25T16:21:08.400Z,4.81
2023-02-25T16:23:40.657Z,4.60
2023-02-25T16:26:23.918Z,4.51
2023-02-25T16:29:04.558Z,4.34
2023-02-25T16:31:42.144Z,4.31
2023-02-25T16:34:20.253Z,4.69
2023-02-25T16:37:03.880Z,4.21
2023-02-25T16:39:33.259Z,4.10
2023-02-25T16:42:05.520Z,4.44
2023-02-25T16:44:38.609Z,4.53
2023-02-25T16:47:23.035Z,4.57
2023-02-25T16:49:54.414Z,4.57
2023-02-25T16:52:28.192Z,4.65
2023-02-25T16:55:00.715Z,4.90
2023-02-25T16:57:29.904Z,4.90
2023-02-25T17:00:23.347Z,4.91
2023-02-25T17:02:52.731Z,4.98
2023-02-25T17:05:27.237Z,4.94
2023-02-25T17:07:56.141Z,4.86
2023-02-25T17:10:29.461Z,4.46
2023-02-25T17:13:01.751Z,4.67
2023-02-25T17:15:33.248Z,4.77
2023-02-25T17:18:07.752Z,5.17
2023-02-25T17:20:36.221Z,5.09
2023-02-25T17:23:09.137Z,5.07
2023-02-25T17:25:40.542Z,5.36
2023-02-25T17:28:23.278Z,4.95
2023-02-25T17:30:51.163Z,5.15
2023-02-25T17:33:21.583Z,5.13
2023-02-25T17:35:52.422Z,5.15
2023-02-25T17:38:24.401Z,5.97
2023-02-25T17:40:53.173Z,5.43
2023-02-25T17:43:25.605Z,5.31
2023-02-25T17:45:56.858Z,5.33
2023-02-25T17:48:27.707Z,5.66
2023-02-25T17:50:59.141Z,5.50
2023-02-25T17:53:39.247Z,5.34
2023-02-25T17:56:21.905Z,5.57
2023-02-25T17:58:51.604Z,5.58
2023-02-25T18:01:26.338Z,5.38
2023-02-25T18:03:56.205Z,5.14
2023-02-25T18:06:49.529Z,5.17
2023-02-25T18:09:36.944Z,5.09
2023-02-25T18:12:08.808Z,5.42
2023-02-25T18:14:40.792Z,5.63
2023-02-25T18:17:19.266Z,5.82
2023-02-25T18:19:48.091Z,5.86
2023-02-25T18:22:32.130Z,5.44
2023-02-25T18:25:02.324Z,5.31
2023-02-25T18:27:31.222Z,5.10
2023-02-25T18:30:19.478Z,5.52
2023-02-25T18:32:47.722Z,4.88
2023-02-25T18:35:17.378Z,5.09
2023-02-25T18:37:47.676Z,5.06
2023-02-25T18:40:19.827Z,5.24
2023-02-25T18:42:47.018Z,5.33
2023-02-25T18:45:16.437Z,4.99
2023-02-25T18:47:45.831Z,5.34
2023-02-25T18:50:14.317Z,6.13
2023-02-25T18:52:42.780Z,5.93
2023-02-25T18:55:17.579Z,6.74
2023-02-25T18:57:47.294Z,7.07
2023-02-25T19:00:17.172Z,5.21
2023-02-25T19:02:49.220Z,4.68
2023-02-25T19:05:18.778Z,4.32
2023-02-25T19:07:50.863Z,4.36
2023-02-25T19:10:20.503Z,4.55
2023-02-25T19:12:49.999Z,4.20
2023-02-25T19:15:19.889Z,4.70
2023-02-25T19:17:49.397Z,4.39
2023-02-25T19:20:19.304Z,4.44
2023-02-25T19:22:50.902Z,4.22
2023-02-25T19:25:22.209Z,4.30
2023-02-25T19:28:02.458Z,4.13
2023-02-25T19:30:57.884Z,3.93
2023-02-25T19:33:31.816Z,4.26
2023-02-25T19:41:29.090Z,3.96
2023-02-25T19:44:03.248Z,3.98
2023-02-25T19:46:33.395Z,4.09
2023-02-25T19:49:03.397Z,4.17
2023-02-25T19:51:39.526Z,4.06
2023-02-25T19:54:15.635Z,4.04
2023-02-25T19:56:42.995Z,4.21
2023-02-25T19:59:10.193Z,4.16
2023-02-25T20:01:37.379Z,4.18
2023-02-25T20:04:07.322Z,4.25
2023-02-25T20:06:40.472Z,4.49
2023-02-25T20:09:11.420Z,4.57
2023-02-25T20:11:56.011Z,4.53
2023-02-25T20:14:23.537Z,4.50
2023-02-25T20:16:55.121Z,4.45
2023-02-25T20:19:27.425Z,4.09
2023-02-25T20:21:54.581Z,4.16
2023-02-25T20:24:21.740Z,4.07
2023-02-25T20:26:48.879Z,3.99
2023-02-25T20:29:21.616Z,3.96
2023-02-25T20:31:51.722Z,3.90
2023-02-25T20:34:24.214Z,3.95
2023-02-25T20:37:01.499Z,3.77
2023-02-25T20:39:55.225Z,3.67
2023-02-25T20:42:25.102Z,3.69
2023-02-25T20:44:55.021Z,3.57
2023-02-25T20:47:26.284Z,3.82
2023-02-25T20:49:56.396Z,4.09
2023-02-25T20:52:25.860Z,3.80
2023-02-25T20:54:53.687Z,3.62
2023-02-25T20:57:23.704Z,3.73
2023-02-25T20:59:51.641Z,3.58
2023-02-25T21:02:18.815Z,3.76
2023-02-25T21:04:47.182Z,3.63
2023-02-25T21:07:15.441Z,3.82
2023-02-25T21:09:44.328Z,4.01
2023-02-25T21:12:11.779Z,3.78
2023-02-25T21:14:39.916Z,3.36
2023-02-25T21:17:30.448Z,3.18
2023-02-25T21:20:45.516Z,3.03
2023-02-25T21:23:20.938Z,3.02
2023-02-25T21:25:50.917Z,2.95
2023-02-25T21:28:40.843Z,3.08
2023-02-25T21:31:14.916Z,2.86
2023-02-25T21:33:44.600Z,2.73
2023-02-25T21:36:14.639Z,2.75
2023-02-25T21:38:42.249Z,2.84
2023-02-25T21:41:19.296Z,2.44
2023-02-25T21:43:49.360Z,2.57
2023-02-25T21:46:28.042Z,2.72
2023-02-25T21:48:57.388Z,2.72
2023-02-25T21:51:30.272Z,2.32
2023-02-25T21:54:01.275Z,2.58
2023-02-25T21:56:31.120Z,2.61
2023-02-25T21:59:02.477Z,2.34
2023-02-25T22:01:36.624Z,2.35
2023-02-25T22:04:08.019Z,2.35
2023-02-25T22:06:36.125Z,2.55
2023-02-25T22:09:04.274Z,2.27
2023-02-25T22:11:35.659Z,2.46
2023-02-25T22:14:23.773Z,2.29
2023-02-25T22:16:59.959Z,2.39
2023-02-25T22:19:46.540Z,2.33
2023-02-25T22:22:22.600Z,2.36
2023-02-25T22:25:04.749Z,2.44
2023-02-25T22:27:34.944Z,2.55
2023-02-25T22:30:06.603Z,2.45
2023-02-25T22:32:35.702Z,2.45
2023-02-25T22:35:03.023Z,2.11
2023-02-25T22:37:32.213Z,2.30
2023-02-25T22:39:59.423Z,2.18
2023-02-25T22:42:27.392Z,2.16
2023-02-25T22:44:58.141Z,2.10
2023-02-25T22:47:25.868Z,2.17
2023-02-25T22:49:53.040Z,2.18
2023-02-25T22:52:20.191Z,2.22
2023-02-25T22:54:47.527Z,2.42
2023-02-25T22:57:14.646Z,2.26
2023-02-25T22:59:41.968Z,2.19
2023-02-25T23:02:10.626Z,2.22
2023-02-25T23:04:37.844Z,2.52
2023-02-25T23:07:05.088Z,2.30
2023-02-25T23:09:32.315Z,2.30
2023-02-25T23:12:00.149Z,2.24
2023-02-25T23:14:27.524Z,2.24
2023-02-25T23:16:54.750Z,2.07
2023-02-25T23:19:23.383Z,2.16
2023-02-25T23:21:50.584Z,2.20
2023-02-25T23:24:17.763Z,2.22
2023-02-25T23:26:46.963Z,2.14
2023-02-25T23:29:14.583Z,2.29
2023-02-25T23:31:44.672Z,2.40
2023-02-25T23:34:14.830Z,2.12
2023-02-25T23:36:44.795Z,2.36
2023-02-25T23:39:14.364Z,2.10
2023-02-25T23:41:42.234Z,2.14
2023-02-25T23:44:15.614Z,2.50
2023-02-25T23:46:43.901Z,2.30
2023-02-25T23:49:13.959Z,2.25
2023-02-25T23:51:44.543Z,2.61
2023-02-25T23:54:15.621Z,2.64
2023-02-25T23:56:42.762Z,2.57
2023-02-25T23:59:09.946Z,2.42
